sensor_id;sensor_type;location;lat;lon;timestamp;P1;durP1;ratioP1;P2;durP2;ratioP2
25349;SDS011;13302;48.796;11.978;2023-01-30T00:00:18;13.23;;;11.83;;
25349;SDS011;13302;48.796;11.978;2023-01-30T00:03:05;13.60;;;11.80;;
25349;SDS011;13302;48.796;11.978;2023-01-30T00:05:52;12.93;;;11.63;;
25349;SDS011;13302;48.796;11.978;2023-01-30T00:08:39;13.07;;;11.77;;
25349;SDS011;13302;48.796;11.978;2023-01-30T00:11:26;12.93;;;11.63;;
25349;SDS011;13302;48.796;11.978;2023-01-30T00:14:15;13.10;;;11.90;;
25349;SDS011;13302;48.796;11.978;2023-01-30T00:17:02;12.57;;;11.37;;
25349;SDS011;13302;48.796;11.978;2023-01-30T00:19:49;12.83;;;11.53;;
25349;SDS011;13302;48.796;11.978;2023-01-30T00:22:36;11.83;;;10.73;;
25349;SDS011;13302;48.796;11.978;2023-01-30T00:25:27;12.40;;;11.23;;
25349;SDS011;13302;48.796;11.978;2023-01-30T00:28:14;12.37;;;11.07;;
25349;SDS011;13302;48.796;11.978;2023-01-30T00:31:01;12.00;;;10.87;;
25349;SDS011;13302;48.796;11.978;2023-01-30T00:33:48;12.17;;;10.97;;
25349;SDS011;13302;48.796;11.978;2023-01-30T00:36:35;13.20;;;12.00;;
25349;SDS011;13302;48.796;11.978;2023-01-30T00:39:22;13.03;;;11.70;;
25349;SDS011;13302;48.796;11.978;2023-01-30T00:42:09;12.27;;;11.07;;
25349;SDS011;13302;48.796;11.978;2023-01-30T00:45:15;12.47;;;11.27;;
25349;SDS011;13302;48.796;11.978;2023-01-30T00:48:20;11.43;;;10.37;;
25349;SDS011;13302;48.796;11.978;2023-01-30T00:51:08;12.70;;;11.37;;
25349;SDS011;13302;48.796;11.978;2023-01-30T00:53:55;12.07;;;10.73;;
25349;SDS011;13302;48.796;11.978;2023-01-30T00:56:42;11.47;;;10.37;;
25349;SDS011;13302;48.796;11.978;2023-01-30T00:59:29;12.17;;;10.97;;
25349;SDS011;13302;48.796;11.978;2023-01-30T01:02:17;11.87;;;10.77;;
25349;SDS011;13302;48.796;11.978;2023-01-30T01:05:04;13.20;;;11.90;;
25349;SDS011;13302;48.796;11.978;2023-01-30T01:07:51;11.93;;;10.83;;
25349;SDS011;13302;48.796;11.978;2023-01-30T01:10:38;12.10;;;10.93;;
25349;SDS011;13302;48.796;11.978;2023-01-30T01:13:25;12.57;;;11.37;;
25349;SDS011;13302;48.796;11.978;2023-01-30T01:16:12;12.00;;;10.83;;
25349;SDS011;13302;48.796;11.978;2023-01-30T01:18:59;11.90;;;10.70;;
25349;SDS011;13302;48.796;11.978;2023-01-30T01:21:47;12.57;;;11.17;;
25349;SDS011;13302;48.796;11.978;2023-01-30T01:24:34;12.13;;;11.03;;
25349;SDS011;13302;48.796;11.978;2023-01-30T01:27:21;12.60;;;11.43;;
25349;SDS011;13302;48.796;11.978;2023-01-30T01:30:08;11.53;;;10.53;;
25349;SDS011;13302;48.796;11.978;2023-01-30T01:32:56;11.77;;;10.67;;
25349;SDS011;13302;48.796;11.978;2023-01-30T01:35:43;12.13;;;10.93;;
25349;SDS011;13302;48.796;11.978;2023-01-30T01:38:30;12.13;;;11.03;;
25349;SDS011;13302;48.796;11.978;2023-01-30T01:41:17;11.90;;;10.80;;
25349;SDS011;13302;48.796;11.978;2023-01-30T01:44:08;13.13;;;11.83;;
25349;SDS011;13302;48.796;11.978;2023-01-30T01:46:58;11.80;;;10.70;;
25349;SDS011;13302;48.796;11.978;2023-01-30T01:49:45;13.07;;;11.77;;
25349;SDS011;13302;48.796;11.978;2023-01-30T01:52:32;12.77;;;11.57;;
25349;SDS011;13302;48.796;11.978;2023-01-30T01:55:19;13.27;;;11.97;;
25349;SDS011;13302;48.796;11.978;2023-01-30T01:58:10;11.73;;;10.53;;
25349;SDS011;13302;48.796;11.978;2023-01-30T02:01:01;12.57;;;11.37;;
25349;SDS011;13302;48.796;11.978;2023-01-30T02:03:50;12.03;;;10.87;;
25349;SDS011;13302;48.796;11.978;2023-01-30T02:06:42;12.57;;;11.27;;
25349;SDS011;13302;48.796;11.978;2023-01-30T02:09:29;11.07;;;10.03;;
25349;SDS011;13302;48.796;11.978;2023-01-30T02:12:16;11.60;;;10.50;;
25349;SDS011;13302;48.796;11.978;2023-01-30T02:15:04;11.17;;;10.07;;
25349;SDS011;13302;48.796;11.978;2023-01-30T02:17:52;11.23;;;10.13;;
25349;SDS011;13302;48.796;11.978;2023-01-30T02:27:33;11.67;;;10.57;;
25349;SDS011;13302;48.796;11.978;2023-01-30T02:30:50;12.00;;;10.83;;
25349;SDS011;13302;48.796;11.978;2023-01-30T02:37:00;12.17;;;10.97;;
25349;SDS011;13302;48.796;11.978;2023-01-30T02:46:11;11.77;;;10.63;;
25349;SDS011;13302;48.796;11.978;2023-01-30T02:49:13;11.43;;;10.33;;
25349;SDS011;13302;48.796;11.978;2023-01-30T02:52:06;12.80;;;11.50;;
25349;SDS011;13302;48.796;11.978;2023-01-30T02:54:57;11.27;;;10.27;;
25349;SDS011;13302;48.796;11.978;2023-01-30T02:57:44;12.80;;;10.77;;
25349;SDS011;13302;48.796;11.978;2023-01-30T03:00:43;11.23;;;10.23;;
25349;SDS011;13302;48.796;11.978;2023-01-30T03:09:57;11.20;;;10.17;;
25349;SDS011;13302;48.796;11.978;2023-01-30T03:16:11;11.73;;;10.63;;
25349;SDS011;13302;48.796;11.978;2023-01-30T03:19:10;10.80;;;9.73;;
25349;SDS011;13302;48.796;11.978;2023-01-30T03:21:58;11.53;;;10.43;;
25349;SDS011;13302;48.796;11.978;2023-01-30T03:24:46;11.50;;;10.40;;
25349;SDS011;13302;48.796;11.978;2023-01-30T03:27:34;11.07;;;9.87;;
25349;SDS011;13302;48.796;11.978;2023-01-30T03:30:24;11.97;;;10.87;;
25349;SDS011;13302;48.796;11.978;2023-01-30T03:33:19;11.37;;;10.27;;
25349;SDS011;13302;48.796;11.978;2023-01-30T03:36:07;11.43;;;10.13;;
25349;SDS011;13302;48.796;11.978;2023-01-30T03:38:56;11.27;;;10.27;;
25349;SDS011;13302;48.796;11.978;2023-01-30T03:41:43;12.00;;;10.80;;
25349;SDS011;13302;48.796;11.978;2023-01-30T03:44:30;11.33;;;10.23;;
25349;SDS011;13302;48.796;11.978;2023-01-30T03:47:17;12.30;;;11.20;;
25349;SDS011;13302;48.796;11.978;2023-01-30T03:50:06;11.07;;;10.00;;
25349;SDS011;13302;48.796;11.978;2023-01-30T03:52:53;12.43;;;11.13;;
25349;SDS011;13302;48.796;11.978;2023-01-30T03:55:42;11.57;;;10.47;;
25349;SDS011;13302;48.796;11.978;2023-01-30T03:58:30;11.40;;;10.37;;
25349;SDS011;13302;48.796;11.978;2023-01-30T04:01:20;12.20;;;10.93;;
25349;SDS011;13302;48.796;11.978;2023-01-30T04:04:08;11.83;;;10.73;;
25349;SDS011;13302;48.796;11.978;2023-01-30T04:06:55;10.77;;;9.73;;
25349;SDS011;13302;48.796;11.978;2023-01-30T04:09:42;11.30;;;10.27;;
25349;SDS011;13302;48.796;11.978;2023-01-30T04:12:30;11.60;;;10.50;;
25349;SDS011;13302;48.796;11.978;2023-01-30T04:15:18;11.20;;;10.10;;
25349;SDS011;13302;48.796;11.978;2023-01-30T04:18:06;11.33;;;10.30;;
25349;SDS011;13302;48.796;11.978;2023-01-30T04:21:09;10.60;;;9.60;;
25349;SDS011;13302;48.796;11.978;2023-01-30T04:23:57;11.20;;;10.20;;
25349;SDS011;13302;48.796;11.978;2023-01-30T04:26:45;12.13;;;10.93;;
25349;SDS011;13302;48.796;11.978;2023-01-30T04:29:34;12.43;;;11.23;;
25349;SDS011;13302;48.796;11.978;2023-01-30T04:32:24;11.67;;;10.50;;
25349;SDS011;13302;48.796;11.978;2023-01-30T04:35:12;12.43;;;11.27;;
25349;SDS011;13302;48.796;11.978;2023-01-30T04:37:59;11.60;;;10.40;;
25349;SDS011;13302;48.796;11.978;2023-01-30T04:40:50;12.13;;;10.83;;
25349;SDS011;13302;48.796;11.978;2023-01-30T04:43:38;11.40;;;10.30;;
25349;SDS011;13302;48.796;11.978;2023-01-30T04:46:40;11.40;;;10.30;;
25349;SDS011;13302;48.796;11.978;2023-01-30T04:49:27;12.17;;;11.03;;
25349;SDS011;13302;48.796;11.978;2023-01-30T04:52:17;12.57;;;11.27;;
25349;SDS011;13302;48.796;11.978;2023-01-30T04:55:04;12.17;;;10.93;;
25349;SDS011;13302;48.796;11.978;2023-01-30T04:57:51;12.43;;;11.23;;
25349;SDS011;13302;48.796;11.978;2023-01-30T05:00:38;11.93;;;10.57;;
25349;SDS011;13302;48.796;11.978;2023-01-30T05:03:25;12.10;;;10.90;;
25349;SDS011;13302;48.796;11.978;2023-01-30T05:06:12;13.00;;;11.57;;
25349;SDS011;13302;48.796;11.978;2023-01-30T05:08:59;12.17;;;11.00;;
25349;SDS011;13302;48.796;11.978;2023-01-30T05:11:47;11.67;;;10.50;;
25349;SDS011;13302;48.796;11.978;2023-01-30T05:14:34;11.97;;;10.77;;
25349;SDS011;13302;48.796;11.978;2023-01-30T05:17:21;12.77;;;11.37;;
25349;SDS011;13302;48.796;11.978;2023-01-30T05:20:08;12.03;;;10.93;;
25349;SDS011;13302;48.796;11.978;2023-01-30T05:22:56;12.53;;;11.23;;
25349;SDS011;13302;48.796;11.978;2023-01-30T05:25:43;11.77;;;10.67;;
25349;SDS011;13302;48.796;11.978;2023-01-30T05:28:30;13.00;;;10.73;;
25349;SDS011;13302;48.796;11.978;2023-01-30T05:31:18;12.97;;;11.67;;
25349;SDS011;13302;48.796;11.978;2023-01-30T05:34:05;12.63;;;11.33;;
25349;SDS011;13302;48.796;11.978;2023-01-30T05:36:52;11.63;;;10.43;;
25349;SDS011;13302;48.796;11.978;2023-01-30T05:39:38;12.30;;;11.10;;
25349;SDS011;13302;48.796;11.978;2023-01-30T05:42:25;12.17;;;10.97;;
25349;SDS011;13302;48.796;11.978;2023-01-30T05:45:12;12.23;;;10.97;;
25349;SDS011;13302;48.796;11.978;2023-01-30T05:47:59;12.50;;;11.20;;
25349;SDS011;13302;48.796;11.978;2023-01-30T05:50:49;11.93;;;10.80;;
25349;SDS011;13302;48.796;11.978;2023-01-30T05:53:37;11.73;;;10.53;;
25349;SDS011;13302;48.796;11.978;2023-01-30T05:56:24;12.73;;;11.37;;
25349;SDS011;13302;48.796;11.978;2023-01-30T05:59:11;12.00;;;10.73;;
25349;SDS011;13302;48.796;11.978;2023-01-30T06:01:58;12.70;;;11.40;;
25349;SDS011;13302;48.796;11.978;2023-01-30T06:04:45;13.13;;;11.83;;
25349;SDS011;13302;48.796;11.978;2023-01-30T06:07:32;11.83;;;10.63;;
25349;SDS011;13302;48.796;11.978;2023-01-30T06:10:19;12.40;;;11.13;;
25349;SDS011;13302;48.796;11.978;2023-01-30T06:13:06;11.97;;;10.67;;
25349;SDS011;13302;48.796;11.978;2023-01-30T06:15:53;12.03;;;10.67;;
25349;SDS011;13302;48.796;11.978;2023-01-30T06:18:40;11.70;;;10.50;;
25349;SDS011;13302;48.796;11.978;2023-01-30T06:21:27;11.37;;;10.17;;
25349;SDS011;13302;48.796;11.978;2023-01-30T06:24:14;11.23;;;10.10;;
25349;SDS011;13302;48.796;11.978;2023-01-30T06:27:01;11.50;;;10.30;;
25349;SDS011;13302;48.796;11.978;2023-01-30T06:29:48;11.80;;;10.60;;
25349;SDS011;13302;48.796;11.978;2023-01-30T06:32:35;11.80;;;10.70;;
25349;SDS011;13302;48.796;11.978;2023-01-30T06:35:22;11.87;;;10.67;;
25349;SDS011;13302;48.796;11.978;2023-01-30T06:38:09;10.90;;;9.80;;
25349;SDS011;13302;48.796;11.978;2023-01-30T06:40:57;12.33;;;11.03;;
25349;SDS011;13302;48.796;11.978;2023-01-30T06:43:44;11.73;;;10.53;;
25349;SDS011;13302;48.796;11.978;2023-01-30T06:46:31;11.57;;;10.37;;
25349;SDS011;13302;48.796;11.978;2023-01-30T06:49:18;12.20;;;10.93;;
25349;SDS011;13302;48.796;11.978;2023-01-30T06:52:05;12.77;;;11.47;;
25349;SDS011;13302;48.796;11.978;2023-01-30T06:54:51;11.93;;;10.73;;
25349;SDS011;13302;48.796;11.978;2023-01-30T06:57:39;11.40;;;10.30;;
25349;SDS011;13302;48.796;11.978;2023-01-30T07:00:26;11.40;;;10.20;;
25349;SDS011;13302;48.796;11.978;2023-01-30T07:03:14;11.57;;;10.40;;
25349;SDS011;13302;48.796;11.978;2023-01-30T07:06:03;11.83;;;10.17;;
25349;SDS011;13302;48.796;11.978;2023-01-30T07:08:50;11.53;;;10.33;;
25349;SDS011;13302;48.796;11.978;2023-01-30T07:11:37;12.10;;;10.40;;
25349;SDS011;13302;48.796;11.978;2023-01-30T07:14:24;12.30;;;10.43;;
25349;SDS011;13302;48.796;11.978;2023-01-30T07:17:10;12.13;;;10.67;;
25349;SDS011;13302;48.796;11.978;2023-01-30T07:19:57;11.47;;;10.27;;
25349;SDS011;13302;48.796;11.978;2023-01-30T07:22:48;11.23;;;9.93;;
25349;SDS011;13302;48.796;11.978;2023-01-30T07:25:38;11.27;;;10.10;;
25349;SDS011;13302;48.796;11.978;2023-01-30T07:28:25;12.70;;;10.97;;
25349;SDS011;13302;48.796;11.978;2023-01-30T07:31:12;12.03;;;10.23;;
25349;SDS011;13302;48.796;11.978;2023-01-30T07:33:59;11.60;;;10.40;;
25349;SDS011;13302;48.796;11.978;2023-01-30T07:36:46;11.87;;;10.67;;
25349;SDS011;13302;48.796;11.978;2023-01-30T07:39:33;11.60;;;10.43;;
25349;SDS011;13302;48.796;11.978;2023-01-30T07:42:20;11.37;;;10.13;;
25349;SDS011;13302;48.796;11.978;2023-01-30T07:45:08;12.20;;;10.90;;
25349;SDS011;13302;48.796;11.978;2023-01-30T07:47:55;13.40;;;11.70;;
25349;SDS011;13302;48.796;11.978;2023-01-30T07:50:42;12.47;;;11.17;;
25349;SDS011;13302;48.796;11.978;2023-01-30T07:53:29;11.30;;;10.10;;
25349;SDS011;13302;48.796;11.978;2023-01-30T07:56:16;11.00;;;9.90;;
25349;SDS011;13302;48.796;11.978;2023-01-30T07:59:05;14.33;;;12.03;;
25349;SDS011;13302;48.796;11.978;2023-01-30T08:01:52;12.80;;;11.37;;
25349;SDS011;13302;48.796;11.978;2023-01-30T08:04:39;13.73;;;11.73;;
25349;SDS011;13302;48.796;11.978;2023-01-30T08:07:26;11.63;;;10.37;;
25349;SDS011;13302;48.796;11.978;2023-01-30T08:10:13;13.90;;;11.10;;
25349;SDS011;13302;48.796;11.978;2023-01-30T08:13:01;12.83;;;11.47;;
25349;SDS011;13302;48.796;11.978;2023-01-30T08:15:48;13.80;;;11.40;;
25349;SDS011;13302;48.796;11.978;2023-01-30T08:18:35;13.13;;;11.63;;
25349;SDS011;13302;48.796;11.978;2023-01-30T08:21:22;14.63;;;12.03;;
25349;SDS011;13302;48.796;11.978;2023-01-30T08:24:09;16.90;;;13.10;;
25349;SDS011;13302;48.796;11.978;2023-01-30T08:26:56;13.77;;;11.80;;
25349;SDS011;13302;48.796;11.978;2023-01-30T08:29:43;13.20;;;11.40;;
25349;SDS011;13302;48.796;11.978;2023-01-30T08:32:30;14.33;;;11.97;;
25349;SDS011;13302;48.796;11.978;2023-01-30T08:35:18;17.67;;;13.27;;
25349;SDS011;13302;48.796;11.978;2023-01-30T08:38:05;14.00;;;12.10;;
25349;SDS011;13302;48.796;11.978;2023-01-30T08:40:54;18.53;;;13.27;;
25349;SDS011;13302;48.796;11.978;2023-01-30T08:43:43;14.00;;;11.50;;
25349;SDS011;13302;48.796;11.978;2023-01-30T08:46:30;15.50;;;12.87;;
25349;SDS011;13302;48.796;11.978;2023-01-30T08:49:17;13.33;;;11.77;;
25349;SDS011;13302;48.796;11.978;2023-01-30T08:52:04;15.40;;;13.13;;
25349;SDS011;13302;48.796;11.978;2023-01-30T08:54:51;15.27;;;12.97;;
25349;SDS011;13302;48.796;11.978;2023-01-30T08:57:38;13.70;;;11.17;;
25349;SDS011;13302;48.796;11.978;2023-01-30T09:00:26;12.80;;;11.23;;
25349;SDS011;13302;48.796;11.978;2023-01-30T09:03:13;12.17;;;10.30;;
25349;SDS011;13302;48.796;11.978;2023-01-30T09:06:01;17.33;;;13.63;;
25349;SDS011;13302;48.796;11.978;2023-01-30T09:08:49;13.70;;;12.23;;
25349;SDS011;13302;48.796;11.978;2023-01-30T09:11:36;11.97;;;10.27;;
25349;SDS011;13302;48.796;11.978;2023-01-30T09:14:22;12.10;;;10.80;;
25349;SDS011;13302;48.796;11.978;2023-01-30T09:17:10;11.77;;;10.57;;
25349;SDS011;13302;48.796;11.978;2023-01-30T09:19:57;11.00;;;9.90;;
25349;SDS011;13302;48.796;11.978;2023-01-30T09:22:44;11.07;;;9.97;;
25349;SDS011;13302;48.796;11.978;2023-01-30T09:25:31;10.90;;;9.80;;
25349;SDS011;13302;48.796;11.978;2023-01-30T09:28:17;11.43;;;10.23;;
25349;SDS011;13302;48.796;11.978;2023-01-30T09:31:04;10.80;;;9.43;;
25349;SDS011;13302;48.796;11.978;2023-01-30T09:33:51;10.20;;;9.10;;
25349;SDS011;13302;48.796;11.978;2023-01-30T09:36:38;11.40;;;9.60;;
25349;SDS011;13302;48.796;11.978;2023-01-30T09:39:26;10.37;;;9.27;;
25349;SDS011;13302;48.796;11.978;2023-01-30T09:45:31;9.53;;;8.53;;
25349;SDS011;13302;48.796;11.978;2023-01-30T09:48:28;9.27;;;8.27;;
25349;SDS011;13302;48.796;11.978;2023-01-30T09:51:52;8.90;;;8.00;;
25349;SDS011;13302;48.796;11.978;2023-01-30T09:54:50;9.67;;;8.67;;
25349;SDS011;13302;48.796;11.978;2023-01-30T09:57:48;9.13;;;8.27;;
25349;SDS011;13302;48.796;11.978;2023-01-30T10:00:37;8.73;;;7.83;;
25349;SDS011;13302;48.796;11.978;2023-01-30T10:03:32;7.80;;;7.00;;
25349;SDS011;13302;48.796;11.978;2023-01-30T10:06:25;8.47;;;7.77;;
25349;SDS011;13302;48.796;11.978;2023-01-30T10:09:15;8.87;;;7.93;;
25349;SDS011;13302;48.796;11.978;2023-01-30T10:12:25;8.53;;;7.67;;
25349;SDS011;13302;48.796;11.978;2023-01-30T10:18:45;7.23;;;6.60;;
25349;SDS011;13302;48.796;11.978;2023-01-30T10:21:44;8.13;;;7.33;;
25349;SDS011;13302;48.796;11.978;2023-01-30T10:27:46;7.00;;;6.30;;
25349;SDS011;13302;48.796;11.978;2023-01-30T10:30:38;10.53;;;7.00;;
25349;SDS011;13302;48.796;11.978;2023-01-30T10:33:31;7.10;;;6.03;;
25349;SDS011;13302;48.796;11.978;2023-01-30T10:36:24;7.53;;;6.87;;
25349;SDS011;13302;48.796;11.978;2023-01-30T10:39:25;7.23;;;6.53;;
25349;SDS011;13302;48.796;11.978;2023-01-30T10:42:15;7.77;;;6.97;;
25349;SDS011;13302;48.796;11.978;2023-01-30T10:45:12;7.50;;;6.80;;
25349;SDS011;13302;48.796;11.978;2023-01-30T10:48:07;7.37;;;6.67;;
25349;SDS011;13302;48.796;11.978;2023-01-30T10:51:10;7.57;;;6.87;;
25349;SDS011;13302;48.796;11.978;2023-01-30T10:54:10;6.87;;;6.27;;
25349;SDS011;13302;48.796;11.978;2023-01-30T10:57:10;6.53;;;5.97;;
25349;SDS011;13302;48.796;11.978;2023-01-30T11:00:29;6.10;;;5.60;;
25349;SDS011;13302;48.796;11.978;2023-01-30T11:06:27;6.40;;;5.80;;
25349;SDS011;13302;48.796;11.978;2023-01-30T11:09:16;6.00;;;5.50;;
25349;SDS011;13302;48.796;11.978;2023-01-30T11:12:03;6.50;;;5.90;;
25349;SDS011;13302;48.796;11.978;2023-01-30T11:17:42;6.03;;;5.53;;
25349;SDS011;13302;48.796;11.978;2023-01-30T11:20:38;6.07;;;5.57;;
25349;SDS011;13302;48.796;11.978;2023-01-30T11:23:31;6.70;;;6.10;;
25349;SDS011;13302;48.796;11.978;2023-01-30T11:26:29;5.37;;;4.90;;
25349;SDS011;13302;48.796;11.978;2023-01-30T11:29:33;6.37;;;5.77;;
25349;SDS011;13302;48.796;11.978;2023-01-30T11:32:27;5.87;;;5.37;;
25349;SDS011;13302;48.796;11.978;2023-01-30T11:35:27;5.80;;;5.30;;
25349;SDS011;13302;48.796;11.978;2023-01-30T11:38:34;9.20;;;8.30;;
25349;SDS011;13302;48.796;11.978;2023-01-30T11:41:24;9.17;;;8.27;;
25349;SDS011;13302;48.796;11.978;2023-01-30T11:44:11;8.87;;;8.07;;
25349;SDS011;13302;48.796;11.978;2023-01-30T11:47:21;6.43;;;5.90;;
25349;SDS011;13302;48.796;11.978;2023-01-30T11:50:14;6.20;;;5.70;;
25349;SDS011;13302;48.796;11.978;2023-01-30T11:53:16;5.93;;;5.43;;
25349;SDS011;13302;48.796;11.978;2023-01-30T11:56:21;5.40;;;4.90;;
25349;SDS011;13302;48.796;11.978;2023-01-30T12:02:20;5.80;;;5.40;;
25349;SDS011;13302;48.796;11.978;2023-01-30T12:05:21;5.33;;;4.93;;
25349;SDS011;13302;48.796;11.978;2023-01-30T12:11:05;5.97;;;5.37;;
25349;SDS011;13302;48.796;11.978;2023-01-30T12:14:15;4.50;;;4.20;;
25349;SDS011;13302;48.796;11.978;2023-01-30T12:17:26;4.90;;;4.50;;
25349;SDS011;13302;48.796;11.978;2023-01-30T12:20:55;4.43;;;4.10;;
25349;SDS011;13302;48.796;11.978;2023-01-30T12:23:42;4.20;;;3.90;;
25349;SDS011;13302;48.796;11.978;2023-01-30T12:26:36;4.50;;;4.10;;
25349;SDS011;13302;48.796;11.978;2023-01-30T12:32:27;4.20;;;3.90;;
25349;SDS011;13302;48.796;11.978;2023-01-30T12:35:17;4.67;;;4.30;;
25349;SDS011;13302;48.796;11.978;2023-01-30T12:41:29;4.60;;;4.20;;
25349;SDS011;13302;48.796;11.978;2023-01-30T12:51:33;3.87;;;3.57;;
25349;SDS011;13302;48.796;11.978;2023-01-30T13:01:13;4.57;;;4.17;;
25349;SDS011;13302;48.796;11.978;2023-01-30T13:04:35;4.47;;;4.10;;
25349;SDS011;13302;48.796;11.978;2023-01-30T13:08:16;3.77;;;3.50;;
25349;SDS011;13302;48.796;11.978;2023-01-30T13:11:31;4.20;;;3.90;;
25349;SDS011;13302;48.796;11.978;2023-01-30T13:14:54;4.53;;;3.87;;
25349;SDS011;13302;48.796;11.978;2023-01-30T13:26:33;4.70;;;4.30;;
25349;SDS011;13302;48.796;11.978;2023-01-30T13:29:27;5.53;;;5.03;;
25349;SDS011;13302;48.796;11.978;2023-01-30T13:35:32;5.83;;;5.30;;
25349;SDS011;13302;48.796;11.978;2023-01-30T13:38:23;6.20;;;5.70;;
25349;SDS011;13302;48.796;11.978;2023-01-30T13:41:14;5.47;;;5.07;;
25349;SDS011;13302;48.796;11.978;2023-01-30T13:44:38;5.40;;;4.97;;
25349;SDS011;13302;48.796;11.978;2023-01-30T13:53:31;5.90;;;5.40;;
25349;SDS011;13302;48.796;11.978;2023-01-30T13:56:30;7.40;;;6.70;;
25349;SDS011;13302;48.796;11.978;2023-01-30T14:02:21;8.73;;;6.97;;
25349;SDS011;13302;48.796;11.978;2023-01-30T14:05:09;10.53;;;7.20;;
25349;SDS011;13302;48.796;11.978;2023-01-30T14:07:56;7.73;;;6.50;;
25349;SDS011;13302;48.796;11.978;2023-01-30T14:10:43;10.47;;;8.30;;
25349;SDS011;13302;48.796;11.978;2023-01-30T14:13:30;8.93;;;7.47;;
25349;SDS011;13302;48.796;11.978;2023-01-30T14:16:18;12.47;;;9.13;;
25349;SDS011;13302;48.796;11.978;2023-01-30T14:31:02;6.67;;;6.07;;
25349;SDS011;13302;48.796;11.978;2023-01-30T14:33:50;8.67;;;7.43;;
25349;SDS011;13302;48.796;11.978;2023-01-30T14:36:37;6.07;;;5.57;;
25349;SDS011;13302;48.796;11.978;2023-01-30T14:39:36;7.47;;;6.20;;
25349;SDS011;13302;48.796;11.978;2023-01-30T14:42:29;6.50;;;5.90;;
25349;SDS011;13302;48.796;11.978;2023-01-30T14:45:16;7.43;;;6.70;;
25349;SDS011;13302;48.796;11.978;2023-01-30T14:51:43;9.13;;;7.63;;
25349;SDS011;13302;48.796;11.978;2023-01-30T14:54:33;8.33;;;7.00;;
25349;SDS011;13302;48.796;11.978;2023-01-30T14:57:28;15.67;;;11.17;;
25349;SDS011;13302;48.796;11.978;2023-01-30T15:00:18;17.87;;;11.67;;
25349;SDS011;13302;48.796;11.978;2023-01-30T15:03:15;14.87;;;10.63;;
25349;SDS011;13302;48.796;11.978;2023-01-30T15:06:05;6.40;;;5.80;;
25349;SDS011;13302;48.796;11.978;2023-01-30T15:08:53;8.60;;;6.90;;
25349;SDS011;13302;48.796;11.978;2023-01-30T15:11:40;7.67;;;6.93;;
25349;SDS011;13302;48.796;11.978;2023-01-30T15:14:36;6.87;;;6.27;;
25349;SDS011;13302;48.796;11.978;2023-01-30T15:17:40;4.77;;;4.47;;
25349;SDS011;13302;48.796;11.978;2023-01-30T15:24:25;4.93;;;4.50;;
25349;SDS011;13302;48.796;11.978;2023-01-30T15:28:09;4.63;;;4.30;;
25349;SDS011;13302;48.796;11.978;2023-01-30T15:34:20;5.20;;;4.80;;
25349;SDS011;13302;48.796;11.978;2023-01-30T15:37:14;5.37;;;4.97;;
25349;SDS011;13302;48.796;11.978;2023-01-30T15:40:34;5.53;;;5.03;;
25349;SDS011;13302;48.796;11.978;2023-01-30T15:47:02;4.93;;;4.57;;
25349;SDS011;13302;48.796;11.978;2023-01-30T15:52:47;5.03;;;4.63;;
25349;SDS011;13302;48.796;11.978;2023-01-30T15:55:36;4.93;;;4.53;;
25349;SDS011;13302;48.796;11.978;2023-01-30T15:58:25;5.43;;;5.00;;
25349;SDS011;13302;48.796;11.978;2023-01-30T16:01:20;4.57;;;4.23;;
25349;SDS011;13302;48.796;11.978;2023-01-30T16:04:23;5.67;;;5.27;;
25349;SDS011;13302;48.796;11.978;2023-01-30T16:07:16;6.53;;;6.00;;
25349;SDS011;13302;48.796;11.978;2023-01-30T16:10:12;6.30;;;5.70;;
25349;SDS011;13302;48.796;11.978;2023-01-30T16:13:04;6.53;;;5.90;;
25349;SDS011;13302;48.796;11.978;2023-01-30T16:16:02;5.43;;;5.03;;
25349;SDS011;13302;48.796;11.978;2023-01-30T16:18:56;6.17;;;5.57;;
25349;SDS011;13302;48.796;11.978;2023-01-30T16:21:47;6.10;;;5.60;;
25349;SDS011;13302;48.796;11.978;2023-01-30T16:24:35;6.50;;;6.00;;
25349;SDS011;13302;48.796;11.978;2023-01-30T16:27:33;6.47;;;5.90;;
25349;SDS011;13302;48.796;11.978;2023-01-30T16:30:22;6.20;;;5.70;;
25349;SDS011;13302;48.796;11.978;2023-01-30T16:33:14;6.90;;;6.30;;
25349;SDS011;13302;48.796;11.978;2023-01-30T16:36:03;6.10;;;5.60;;
25349;SDS011;13302;48.796;11.978;2023-01-30T16:38:53;6.23;;;5.73;;
25349;SDS011;13302;48.796;11.978;2023-01-30T16:41:41;7.90;;;7.10;;
25349;SDS011;13302;48.796;11.978;2023-01-30T16:44:31;6.90;;;6.30;;
25349;SDS011;13302;48.796;11.978;2023-01-30T16:47:22;8.17;;;6.07;;
25349;SDS011;13302;48.796;11.978;2023-01-30T16:50:18;5.63;;;5.23;;
25349;SDS011;13302;48.796;11.978;2023-01-30T16:53:11;6.03;;;5.50;;
25349;SDS011;13302;48.796;11.978;2023-01-30T16:56:02;6.30;;;5.80;;
25349;SDS011;13302;48.796;11.978;2023-01-30T16:58:57;5.13;;;4.63;;
25349;SDS011;13302;48.796;11.978;2023-01-30T17:01:46;4.60;;;4.30;;
25349;SDS011;13302;48.796;11.978;2023-01-30T17:04:33;5.03;;;4.63;;
25349;SDS011;13302;48.796;11.978;2023-01-30T17:07:31;6.30;;;5.70;;
25349;SDS011;13302;48.796;11.978;2023-01-30T17:13:28;5.03;;;4.63;;
25349;SDS011;13302;48.796;11.978;2023-01-30T17:16:24;4.70;;;4.40;;
25349;SDS011;13302;48.796;11.978;2023-01-30T17:19:17;4.23;;;3.93;;
25349;SDS011;13302;48.796;11.978;2023-01-30T17:22:05;4.80;;;4.40;;
25349;SDS011;13302;48.796;11.978;2023-01-30T17:24:55;4.97;;;4.57;;
25349;SDS011;13302;48.796;11.978;2023-01-30T17:27:47;4.50;;;4.20;;
25349;SDS011;13302;48.796;11.978;2023-01-30T17:30:34;4.53;;;4.13;;
25349;SDS011;13302;48.796;11.978;2023-01-30T17:33:21;4.50;;;4.10;;
25349;SDS011;13302;48.796;11.978;2023-01-30T17:36:10;4.07;;;3.77;;
25349;SDS011;13302;48.796;11.978;2023-01-30T17:39:18;4.47;;;4.10;;
25349;SDS011;13302;48.796;11.978;2023-01-30T17:42:11;5.00;;;4.57;;
25349;SDS011;13302;48.796;11.978;2023-01-30T17:44:59;4.00;;;3.70;;
25349;SDS011;13302;48.796;11.978;2023-01-30T17:47:46;4.37;;;4.00;;
25349;SDS011;13302;48.796;11.978;2023-01-30T17:50:33;4.20;;;3.90;;
25349;SDS011;13302;48.796;11.978;2023-01-30T17:53:22;4.00;;;3.70;;
25349;SDS011;13302;48.796;11.978;2023-01-30T17:56:14;3.83;;;3.53;;
25349;SDS011;13302;48.796;11.978;2023-01-30T17:59:05;4.30;;;4.00;;
25349;SDS011;13302;48.796;11.978;2023-01-30T18:01:56;4.40;;;4.07;;
25349;SDS011;13302;48.796;11.978;2023-01-30T18:04:44;4.40;;;4.00;;
25349;SDS011;13302;48.796;11.978;2023-01-30T18:07:31;4.93;;;4.10;;
25349;SDS011;13302;48.796;11.978;2023-01-30T18:10:18;4.30;;;4.00;;
25349;SDS011;13302;48.796;11.978;2023-01-30T18:13:06;3.93;;;3.73;;
25349;SDS011;13302;48.796;11.978;2023-01-30T18:15:53;3.97;;;3.67;;
25349;SDS011;13302;48.796;11.978;2023-01-30T18:18:44;4.33;;;3.63;;
25349;SDS011;13302;48.796;11.978;2023-01-30T18:21:31;3.87;;;3.57;;
25349;SDS011;13302;48.796;11.978;2023-01-30T18:24:19;4.10;;;3.80;;
25349;SDS011;13302;48.796;11.978;2023-01-30T18:27:06;3.60;;;3.30;;
25349;SDS011;13302;48.796;11.978;2023-01-30T18:29:53;4.60;;;4.20;;
25349;SDS011;13302;48.796;11.978;2023-01-30T18:32:40;3.90;;;3.70;;
25349;SDS011;13302;48.796;11.978;2023-01-30T18:35:38;3.70;;;3.40;;
25349;SDS011;13302;48.796;11.978;2023-01-30T18:38:25;3.30;;;3.10;;
25349;SDS011;13302;48.796;11.978;2023-01-30T18:41:14;4.07;;;3.77;;